createdAt,value
2023-03-05T00:00:56.929Z,3622.40112
2023-03-05T00:15:59.148Z,4000.23657
2023-03-05T00:31:01.859Z,3181.17065
2023-03-05T00:46:04.294Z,2185.86621
2023-03-05T01:01:06.560Z,1475.84009
2023-03-05T01:16:08.886Z,754.40277
2023-03-05T01:31:11.432Z,294.15369
2023-03-05T01:46:13.838Z,68.4668
2023-03-05T02:01:16.467Z,5.07162
2023-03-05T02:16:18.793Z,0
2023-03-05T02:31:21.229Z,0
2023-03-05T02:46:23.506Z,0
2023-03-05T03:01:25.794Z,0
2023-03-05T03:16:28.134Z,0
2023-03-05T03:31:30.376Z,0
2023-03-05T03:46:32.804Z,0
2023-03-05T04:01:35.062Z,0
2023-03-05T04:16:37.419Z,0
2023-03-05T04:31:39.705Z,0
2023-03-05T04:46:41.933Z,0
2023-03-05T05:01:44.483Z,0
2023-03-05T05:16:46.791Z,0
2023-03-05T05:31:49.029Z,0
2023-03-05T05:46:51.300Z,0
2023-03-05T06:01:53.610Z,0
2023-03-05T06:16:55.993Z,0
2023-03-05T06:31:58.336Z,0
2023-03-05T06:47:00.573Z,0
2023-03-05T07:02:02.885Z,0
2023-03-05T07:17:05.329Z,0
2023-03-05T07:32:07.663Z,0
2023-03-05T07:47:10.051Z,0
2023-03-05T08:02:12.223Z,0
2023-03-05T08:17:14.433Z,0
2023-03-05T08:32:16.754Z,0
2023-03-05T08:47:18.994Z,0
2023-03-05T09:02:21.394Z,0
2023-03-05T09:17:23.677Z,0
2023-03-05T09:32:26.063Z,0
2023-03-05T09:47:28.234Z,0
2023-03-05T10:02:30.437Z,0
2023-03-05T10:17:32.651Z,0
2023-03-05T10:32:34.907Z,0
2023-03-05T10:47:37.291Z,0
2023-03-05T11:02:39.592Z,0
2023-03-05T11:17:41.988Z,0
2023-03-05T11:32:44.232Z,0
2023-03-05T11:47:46.479Z,0
2023-03-05T12:02:48.913Z,0
2023-03-05T12:17:51.229Z,0
2023-03-05T12:32:53.547Z,0
2023-03-05T12:47:55.815Z,0
2023-03-05T13:02:57.978Z,0
2023-03-05T13:18:00.220Z,0
2023-03-05T13:33:02.502Z,0
2023-03-05T13:48:04.754Z,0
2023-03-05T14:03:07.200Z,5.07162
2023-03-05T14:18:09.547Z,44.37663
2023-03-05T14:33:11.784Z,167.3633
2023-03-05T14:48:14.095Z,417.14035
2023-03-05T15:03:16.309Z,726.50885
2023-03-05T15:18:18.549Z,1053.62805
2023-03-05T15:33:20.830Z,1478.37585
2023-03-05T15:48:23.012Z,2007.09167
2023-03-05T16:03:25.395Z,2543.41504
2023-03-05T16:18:27.655Z,3405.5896
2023-03-05T16:33:30.010Z,4800.28369
2023-03-05T16:48:32.352Z,4518.80908
2023-03-05T17:03:34.598Z,4624.04541
2023-03-05T17:18:36.849Z,5709.37061
2023-03-05T17:33:39.294Z,5898.28857
2023-03-05T17:48:41.700Z,5904.62793
2023-03-05T18:03:43.963Z,8179.24756
2023-03-05T18:18:46.211Z,9528.29688
2023-03-05T18:33:48.510Z,8498.75879
2023-03-05T18:48:50.985Z,7736.74902
2023-03-05T19:03:53.229Z,7366.521
2023-03-05T19:18:55.477Z,7882.55811
2023-03-05T19:33:57.805Z,6850.48438
2023-03-05T19:49:00.019Z,7358.91357
2023-03-05T20:04:02.349Z,7521.20557
2023-03-05T20:19:04.621Z,7068.56348
2023-03-05T20:34:06.859Z,7182.67529
2023-03-05T20:49:09.306Z,7393.14697
2023-03-05T21:04:11.544Z,7469.22119
2023-03-05T21:19:13.835Z,7840.71729
2023-03-05T21:34:16.225Z,8525.38477
2023-03-05T21:49:18.495Z,8171.64014
2023-03-05T22:04:20.673Z,6968.39941
2023-03-05T22:19:22.934Z,7059.68848
2023-03-05T22:34:25.163Z,6349.66211
2023-03-05T22:49:27.672Z,5922.37891
2023-03-05T23:04:29.952Z,5298.56982
2023-03-05T23:19:32.365Z,4804.0874
2023-03-05T23:34:34.642Z,3983.75366
2023-03-05T23:49:36.900Z,3657.90259
